sensor_id;sensor_type;location;lat;lon;timestamp;P1;durP1;ratioP1;P2;durP2;ratioP2
65206;SDS011;58477;48.072;11.970;2022-12-16T00:00:00;63.97;;;21.70;;
65206;SDS011;58477;48.072;11.970;2022-12-16T00:02:26;65.55;;;24.05;;
65206;SDS011;58477;48.072;11.970;2022-12-16T00:04:51;64.72;;;22.23;;
65206;SDS011;58477;48.072;11.970;2022-12-16T00:07:17;59.30;;;22.17;;
65206;SDS011;58477;48.072;11.970;2022-12-16T00:09:42;63.97;;;22.55;;
65206;SDS011;58477;48.072;11.970;2022-12-16T00:12:07;65.18;;;22.23;;
65206;SDS011;58477;48.072;11.970;2022-12-16T00:14:33;67.72;;;23.27;;
65206;SDS011;58477;48.072;11.970;2022-12-16T00:16:58;72.40;;;23.98;;
65206;SDS011;58477;48.072;11.970;2022-12-16T00:19:24;82.53;;;25.38;;
65206;SDS011;58477;48.072;11.970;2022-12-16T00:21:49;64.47;;;23.17;;
65206;SDS011;58477;48.072;11.970;2022-12-16T00:24:15;74.85;;;23.00;;
65206;SDS011;58477;48.072;11.970;2022-12-16T00:26:40;62.00;;;21.70;;
65206;SDS011;58477;48.072;11.970;2022-12-16T00:29:05;66.45;;;21.05;;
65206;SDS011;58477;48.072;11.970;2022-12-16T00:31:31;62.88;;;21.13;;
65206;SDS011;58477;48.072;11.970;2022-12-16T00:33:56;60.08;;;21.27;;
65206;SDS011;58477;48.072;11.970;2022-12-16T00:36:22;65.20;;;24.10;;
65206;SDS011;58477;48.072;11.970;2022-12-16T00:38:48;55.60;;;17.85;;
65206;SDS011;58477;48.072;11.970;2022-12-16T00:41:16;43.55;;;18.25;;
65206;SDS011;58477;48.072;11.970;2022-12-16T00:43:41;47.92;;;17.90;;
65206;SDS011;58477;48.072;11.970;2022-12-16T00:46:07;40.22;;;15.85;;
65206;SDS011;58477;48.072;11.970;2022-12-16T00:48:32;43.22;;;17.40;;
65206;SDS011;58477;48.072;11.970;2022-12-16T00:50:58;51.08;;;19.20;;
65206;SDS011;58477;48.072;11.970;2022-12-16T00:53:23;38.97;;;17.88;;
65206;SDS011;58477;48.072;11.970;2022-12-16T00:55:49;41.97;;;16.70;;
65206;SDS011;58477;48.072;11.970;2022-12-16T00:58:14;41.20;;;18.10;;
65206;SDS011;58477;48.072;11.970;2022-12-16T01:00:41;42.70;;;17.08;;
65206;SDS011;58477;48.072;11.970;2022-12-16T01:03:06;44.05;;;16.75;;
65206;SDS011;58477;48.072;11.970;2022-12-16T01:05:32;40.20;;;16.60;;
65206;SDS011;58477;48.072;11.970;2022-12-16T01:07:58;48.22;;;18.45;;
65206;SDS011;58477;48.072;11.970;2022-12-16T01:10:23;37.20;;;15.55;;
65206;SDS011;58477;48.072;11.970;2022-12-16T01:12:49;39.63;;;16.67;;
65206;SDS011;58477;48.072;11.970;2022-12-16T01:15:15;41.35;;;16.45;;
65206;SDS011;58477;48.072;11.970;2022-12-16T01:17:42;40.35;;;16.25;;
65206;SDS011;58477;48.072;11.970;2022-12-16T01:20:07;41.67;;;15.57;;
65206;SDS011;58477;48.072;11.970;2022-12-16T01:22:34;39.05;;;15.45;;
65206;SDS011;58477;48.072;11.970;2022-12-16T01:25:00;40.67;;;16.67;;
65206;SDS011;58477;48.072;11.970;2022-12-16T01:27:26;41.10;;;14.75;;
65206;SDS011;58477;48.072;11.970;2022-12-16T01:29:52;40.45;;;16.15;;
65206;SDS011;58477;48.072;11.970;2022-12-16T01:32:18;36.70;;;14.95;;
65206;SDS011;58477;48.072;11.970;2022-12-16T01:34:47;38.97;;;16.00;;
65206;SDS011;58477;48.072;11.970;2022-12-16T01:37:14;35.03;;;15.63;;
65206;SDS011;58477;48.072;11.970;2022-12-16T01:39:39;35.55;;;14.43;;
65206;SDS011;58477;48.072;11.970;2022-12-16T01:42:14;33.13;;;14.60;;
65206;SDS011;58477;48.072;11.970;2022-12-16T01:44:42;30.83;;;13.55;;
65206;SDS011;58477;48.072;11.970;2022-12-16T01:47:12;34.40;;;14.18;;
65206;SDS011;58477;48.072;11.970;2022-12-16T01:52:22;28.05;;;12.40;;
65206;SDS011;58477;48.072;11.970;2022-12-16T01:55:00;29.48;;;13.00;;
65206;SDS011;58477;48.072;11.970;2022-12-16T01:57:40;27.88;;;12.20;;
65206;SDS011;58477;48.072;11.970;2022-12-16T02:00:11;30.17;;;12.95;;
65206;SDS011;58477;48.072;11.970;2022-12-16T02:02:40;27.30;;;11.68;;
65206;SDS011;58477;48.072;11.970;2022-12-16T02:05:09;30.20;;;12.45;;
65206;SDS011;58477;48.072;11.970;2022-12-16T02:07:55;27.92;;;12.45;;
65206;SDS011;58477;48.072;11.970;2022-12-16T02:15:56;25.75;;;11.75;;
65206;SDS011;58477;48.072;11.970;2022-12-16T02:18:35;25.50;;;11.52;;
65206;SDS011;58477;48.072;11.970;2022-12-16T02:26:42;23.33;;;11.15;;
65206;SDS011;58477;48.072;11.970;2022-12-16T02:29:35;21.63;;;10.68;;
65206;SDS011;58477;48.072;11.970;2022-12-16T02:38:06;23.75;;;11.20;;
65206;SDS011;58477;48.072;11.970;2022-12-16T02:43:28;23.67;;;10.57;;
65206;SDS011;58477;48.072;11.970;2022-12-16T02:46:14;23.73;;;11.38;;
65206;SDS011;58477;48.072;11.970;2022-12-16T02:48:41;23.52;;;11.02;;
65206;SDS011;58477;48.072;11.970;2022-12-16T02:51:06;25.00;;;12.63;;
65206;SDS011;58477;48.072;11.970;2022-12-16T02:53:33;24.25;;;11.38;;
65206;SDS011;58477;48.072;11.970;2022-12-16T03:04:19;20.10;;;10.52;;
65206;SDS011;58477;48.072;11.970;2022-12-16T03:06:51;21.65;;;10.75;;
65206;SDS011;58477;48.072;11.970;2022-12-16T03:09:23;22.90;;;11.75;;
65206;SDS011;58477;48.072;11.970;2022-12-16T03:11:53;22.92;;;11.43;;
65206;SDS011;58477;48.072;11.970;2022-12-16T03:14:21;19.15;;;11.18;;
65206;SDS011;58477;48.072;11.970;2022-12-16T03:16:48;22.55;;;11.38;;
65206;SDS011;58477;48.072;11.970;2022-12-16T03:19:15;21.98;;;11.40;;
65206;SDS011;58477;48.072;11.970;2022-12-16T03:21:42;22.25;;;12.38;;
65206;SDS011;58477;48.072;11.970;2022-12-16T03:24:13;24.08;;;11.82;;
65206;SDS011;58477;48.072;11.970;2022-12-16T03:26:42;21.65;;;10.57;;
65206;SDS011;58477;48.072;11.970;2022-12-16T03:29:18;24.45;;;12.38;;
65206;SDS011;58477;48.072;11.970;2022-12-16T03:32:01;22.38;;;11.05;;
65206;SDS011;58477;48.072;11.970;2022-12-16T03:34:34;24.33;;;12.20;;
65206;SDS011;58477;48.072;11.970;2022-12-16T03:37:12;25.13;;;12.25;;
65206;SDS011;58477;48.072;11.970;2022-12-16T03:39:42;22.77;;;10.93;;
65206;SDS011;58477;48.072;11.970;2022-12-16T03:42:11;19.60;;;11.43;;
65206;SDS011;58477;48.072;11.970;2022-12-16T03:44:39;23.80;;;12.63;;
65206;SDS011;58477;48.072;11.970;2022-12-16T03:47:07;27.85;;;12.90;;
65206;SDS011;58477;48.072;11.970;2022-12-16T03:49:32;24.60;;;13.25;;
65206;SDS011;58477;48.072;11.970;2022-12-16T03:51:58;21.83;;;12.18;;
65206;SDS011;58477;48.072;11.970;2022-12-16T03:54:23;25.17;;;12.77;;
65206;SDS011;58477;48.072;11.970;2022-12-16T03:56:49;21.17;;;12.15;;
65206;SDS011;58477;48.072;11.970;2022-12-16T03:59:15;25.20;;;13.07;;
65206;SDS011;58477;48.072;11.970;2022-12-16T04:01:41;23.88;;;12.80;;
65206;SDS011;58477;48.072;11.970;2022-12-16T04:04:07;23.70;;;12.55;;
65206;SDS011;58477;48.072;11.970;2022-12-16T04:06:33;22.55;;;12.20;;
65206;SDS011;58477;48.072;11.970;2022-12-16T04:08:59;23.30;;;13.43;;
65206;SDS011;58477;48.072;11.970;2022-12-16T04:11:24;21.45;;;12.70;;
65206;SDS011;58477;48.072;11.970;2022-12-16T04:14:08;20.73;;;12.45;;
65206;SDS011;58477;48.072;11.970;2022-12-16T04:16:52;21.02;;;12.02;;
65206;SDS011;58477;48.072;11.970;2022-12-16T04:19:37;21.42;;;12.32;;
65206;SDS011;58477;48.072;11.970;2022-12-16T04:22:42;21.55;;;12.18;;
65206;SDS011;58477;48.072;11.970;2022-12-16T04:25:27;20.85;;;12.35;;
65206;SDS011;58477;48.072;11.970;2022-12-16T04:27:55;22.70;;;13.70;;
65206;SDS011;58477;48.072;11.970;2022-12-16T04:30:22;24.88;;;14.27;;
65206;SDS011;58477;48.072;11.970;2022-12-16T04:32:54;26.88;;;15.57;;
65206;SDS011;58477;48.072;11.970;2022-12-16T04:35:50;28.52;;;15.73;;
65206;SDS011;58477;48.072;11.970;2022-12-16T04:38:34;30.33;;;16.65;;
65206;SDS011;58477;48.072;11.970;2022-12-16T04:41:18;32.17;;;18.02;;
65206;SDS011;58477;48.072;11.970;2022-12-16T04:44:01;33.97;;;18.15;;
65206;SDS011;58477;48.072;11.970;2022-12-16T04:46:47;35.67;;;18.67;;
65206;SDS011;58477;48.072;11.970;2022-12-16T04:49:31;36.20;;;19.40;;
65206;SDS011;58477;48.072;11.970;2022-12-16T04:52:16;26.30;;;15.88;;
65206;SDS011;58477;48.072;11.970;2022-12-16T04:55:00;32.67;;;17.30;;
65206;SDS011;58477;48.072;11.970;2022-12-16T04:57:51;30.45;;;17.27;;
65206;SDS011;58477;48.072;11.970;2022-12-16T05:00:39;33.10;;;18.17;;
65206;SDS011;58477;48.072;11.970;2022-12-16T05:03:24;33.15;;;17.42;;
65206;SDS011;58477;48.072;11.970;2022-12-16T05:06:12;24.85;;;13.75;;
65206;SDS011;58477;48.072;11.970;2022-12-16T05:08:56;37.17;;;19.05;;
65206;SDS011;58477;48.072;11.970;2022-12-16T05:11:40;37.33;;;18.02;;
65206;SDS011;58477;48.072;11.970;2022-12-16T05:14:24;38.20;;;18.80;;
65206;SDS011;58477;48.072;11.970;2022-12-16T05:17:08;43.47;;;19.33;;
65206;SDS011;58477;48.072;11.970;2022-12-16T05:19:52;41.35;;;21.80;;
65206;SDS011;58477;48.072;11.970;2022-12-16T05:22:36;15.20;;;8.55;;
65206;SDS011;58477;48.072;11.970;2022-12-16T05:25:21;35.58;;;18.00;;
65206;SDS011;58477;48.072;11.970;2022-12-16T05:28:05;21.60;;;11.38;;
65206;SDS011;58477;48.072;11.970;2022-12-16T05:30:49;38.42;;;18.92;;
65206;SDS011;58477;48.072;11.970;2022-12-16T05:33:33;37.80;;;18.10;;
65206;SDS011;58477;48.072;11.970;2022-12-16T05:36:17;38.80;;;18.17;;
65206;SDS011;58477;48.072;11.970;2022-12-16T05:39:01;33.80;;;16.88;;
65206;SDS011;58477;48.072;11.970;2022-12-16T05:41:45;40.75;;;19.23;;
65206;SDS011;58477;48.072;11.970;2022-12-16T05:44:29;37.17;;;19.23;;
65206;SDS011;58477;48.072;11.970;2022-12-16T05:47:13;33.20;;;16.40;;
65206;SDS011;58477;48.072;11.970;2022-12-16T05:49:58;36.35;;;17.48;;
65206;SDS011;58477;48.072;11.970;2022-12-16T05:52:52;34.78;;;16.67;;
65206;SDS011;58477;48.072;11.970;2022-12-16T05:55:37;34.20;;;17.30;;
65206;SDS011;58477;48.072;11.970;2022-12-16T05:58:21;33.42;;;16.00;;
65206;SDS011;58477;48.072;11.970;2022-12-16T06:01:05;31.88;;;15.75;;
65206;SDS011;58477;48.072;11.970;2022-12-16T06:03:50;37.67;;;17.35;;
65206;SDS011;58477;48.072;11.970;2022-12-16T06:06:34;35.03;;;17.40;;
65206;SDS011;58477;48.072;11.970;2022-12-16T06:09:18;37.97;;;19.40;;
65206;SDS011;58477;48.072;11.970;2022-12-16T06:12:02;39.28;;;18.20;;
65206;SDS011;58477;48.072;11.970;2022-12-16T06:14:46;37.22;;;19.35;;
65206;SDS011;58477;48.072;11.970;2022-12-16T06:17:30;40.50;;;19.38;;
65206;SDS011;58477;48.072;11.970;2022-12-16T06:20:15;30.52;;;15.93;;
65206;SDS011;58477;48.072;11.970;2022-12-16T06:22:59;46.22;;;19.58;;
65206;SDS011;58477;48.072;11.970;2022-12-16T06:25:42;36.03;;;18.70;;
65206;SDS011;58477;48.072;11.970;2022-12-16T06:28:26;36.67;;;19.33;;
65206;SDS011;58477;48.072;11.970;2022-12-16T06:31:10;33.03;;;15.90;;
65206;SDS011;58477;48.072;11.970;2022-12-16T06:33:54;26.60;;;14.70;;
65206;SDS011;58477;48.072;11.970;2022-12-16T06:36:38;47.90;;;21.10;;
65206;SDS011;58477;48.072;11.970;2022-12-16T06:39:23;42.40;;;20.98;;
65206;SDS011;58477;48.072;11.970;2022-12-16T06:42:06;42.55;;;19.17;;
65206;SDS011;58477;48.072;11.970;2022-12-16T06:44:50;26.40;;;14.05;;
65206;SDS011;58477;48.072;11.970;2022-12-16T06:47:34;44.08;;;20.30;;
65206;SDS011;58477;48.072;11.970;2022-12-16T06:50:20;44.92;;;19.88;;
65206;SDS011;58477;48.072;11.970;2022-12-16T06:53:04;46.58;;;20.55;;
65206;SDS011;58477;48.072;11.970;2022-12-16T06:55:49;49.05;;;21.88;;
65206;SDS011;58477;48.072;11.970;2022-12-16T06:58:33;33.28;;;15.82;;
65206;SDS011;58477;48.072;11.970;2022-12-16T07:01:17;48.42;;;23.27;;
65206;SDS011;58477;48.072;11.970;2022-12-16T07:04:01;48.17;;;21.73;;
65206;SDS011;58477;48.072;11.970;2022-12-16T07:06:45;34.92;;;17.65;;
65206;SDS011;58477;48.072;11.970;2022-12-16T07:09:29;45.17;;;22.17;;
65206;SDS011;58477;48.072;11.970;2022-12-16T07:12:13;45.28;;;22.13;;
65206;SDS011;58477;48.072;11.970;2022-12-16T07:14:57;35.95;;;18.60;;
65206;SDS011;58477;48.072;11.970;2022-12-16T07:17:42;45.65;;;20.58;;
65206;SDS011;58477;48.072;11.970;2022-12-16T07:20:28;46.55;;;21.50;;
65206;SDS011;58477;48.072;11.970;2022-12-16T07:23:11;30.30;;;14.85;;
65206;SDS011;58477;48.072;11.970;2022-12-16T07:25:56;39.42;;;18.83;;
65206;SDS011;58477;48.072;11.970;2022-12-16T07:28:40;37.40;;;17.67;;
65206;SDS011;58477;48.072;11.970;2022-12-16T07:31:24;41.95;;;20.17;;
65206;SDS011;58477;48.072;11.970;2022-12-16T07:34:08;44.10;;;18.05;;
65206;SDS011;58477;48.072;11.970;2022-12-16T07:37:12;31.55;;;15.38;;
65206;SDS011;58477;48.072;11.970;2022-12-16T07:39:56;40.55;;;18.80;;
65206;SDS011;58477;48.072;11.970;2022-12-16T07:42:49;39.33;;;19.60;;
65206;SDS011;58477;48.072;11.970;2022-12-16T07:45:33;31.40;;;15.63;;
65206;SDS011;58477;48.072;11.970;2022-12-16T07:48:17;38.75;;;16.55;;
65206;SDS011;58477;48.072;11.970;2022-12-16T07:51:20;49.95;;;21.90;;
65206;SDS011;58477;48.072;11.970;2022-12-16T07:54:05;42.22;;;21.70;;
65206;SDS011;58477;48.072;11.970;2022-12-16T07:56:49;54.47;;;22.27;;
65206;SDS011;58477;48.072;11.970;2022-12-16T07:59:33;46.65;;;24.08;;
65206;SDS011;58477;48.072;11.970;2022-12-16T08:02:16;50.22;;;22.77;;
65206;SDS011;58477;48.072;11.970;2022-12-16T08:05:01;46.60;;;22.70;;
65206;SDS011;58477;48.072;11.970;2022-12-16T08:07:45;47.95;;;22.88;;
65206;SDS011;58477;48.072;11.970;2022-12-16T08:10:29;50.17;;;22.38;;
65206;SDS011;58477;48.072;11.970;2022-12-16T08:13:13;34.75;;;13.35;;
65206;SDS011;58477;48.072;11.970;2022-12-16T08:15:57;41.03;;;19.52;;
65206;SDS011;58477;48.072;11.970;2022-12-16T08:18:41;38.47;;;17.65;;
65206;SDS011;58477;48.072;11.970;2022-12-16T08:21:25;46.13;;;20.63;;
65206;SDS011;58477;48.072;11.970;2022-12-16T08:24:09;32.20;;;16.33;;
65206;SDS011;58477;48.072;11.970;2022-12-16T08:26:53;52.90;;;25.13;;
65206;SDS011;58477;48.072;11.970;2022-12-16T08:29:37;36.70;;;18.50;;
65206;SDS011;58477;48.072;11.970;2022-12-16T08:32:24;37.60;;;19.92;;
65206;SDS011;58477;48.072;11.970;2022-12-16T08:35:08;59.72;;;23.55;;
65206;SDS011;58477;48.072;11.970;2022-12-16T08:37:55;55.15;;;24.45;;
65206;SDS011;58477;48.072;11.970;2022-12-16T08:40:40;45.53;;;21.70;;
65206;SDS011;58477;48.072;11.970;2022-12-16T08:43:26;41.60;;;18.48;;
65206;SDS011;58477;48.072;11.970;2022-12-16T08:46:10;39.70;;;18.00;;
65206;SDS011;58477;48.072;11.970;2022-12-16T08:48:54;58.88;;;25.75;;
65206;SDS011;58477;48.072;11.970;2022-12-16T08:51:39;49.08;;;24.23;;
65206;SDS011;58477;48.072;11.970;2022-12-16T08:54:22;50.67;;;24.27;;
65206;SDS011;58477;48.072;11.970;2022-12-16T08:57:07;44.67;;;21.85;;
65206;SDS011;58477;48.072;11.970;2022-12-16T08:59:51;53.03;;;24.67;;
65206;SDS011;58477;48.072;11.970;2022-12-16T09:02:35;34.45;;;18.55;;
65206;SDS011;58477;48.072;11.970;2022-12-16T09:05:18;36.88;;;15.70;;
65206;SDS011;58477;48.072;11.970;2022-12-16T09:08:03;44.92;;;22.45;;
65206;SDS011;58477;48.072;11.970;2022-12-16T09:10:47;42.97;;;19.40;;
65206;SDS011;58477;48.072;11.970;2022-12-16T09:13:31;43.60;;;20.27;;
65206;SDS011;58477;48.072;11.970;2022-12-16T09:16:16;42.50;;;20.90;;
65206;SDS011;58477;48.072;11.970;2022-12-16T09:19:00;46.40;;;21.65;;
65206;SDS011;58477;48.072;11.970;2022-12-16T09:21:44;43.80;;;21.63;;
65206;SDS011;58477;48.072;11.970;2022-12-16T09:24:28;39.70;;;17.65;;
65206;SDS011;58477;48.072;11.970;2022-12-16T09:27:12;51.80;;;22.90;;
65206;SDS011;58477;48.072;11.970;2022-12-16T09:29:56;55.63;;;24.42;;
65206;SDS011;58477;48.072;11.970;2022-12-16T09:32:41;50.28;;;23.23;;
65206;SDS011;58477;48.072;11.970;2022-12-16T09:35:26;33.97;;;18.00;;
65206;SDS011;58477;48.072;11.970;2022-12-16T09:38:10;49.38;;;23.92;;
65206;SDS011;58477;48.072;11.970;2022-12-16T09:40:54;38.63;;;18.50;;
65206;SDS011;58477;48.072;11.970;2022-12-16T09:54:57;27.42;;;13.57;;
65206;SDS011;58477;48.072;11.970;2022-12-16T09:57:43;46.50;;;22.23;;
65206;SDS011;58477;48.072;11.970;2022-12-16T10:00:28;47.35;;;22.50;;
65206;SDS011;58477;48.072;11.970;2022-12-16T10:06:13;35.95;;;16.60;;
65206;SDS011;58477;48.072;11.970;2022-12-16T10:14:59;38.75;;;17.13;;
65206;SDS011;58477;48.072;11.970;2022-12-16T10:17:55;31.25;;;16.23;;
65206;SDS011;58477;48.072;11.970;2022-12-16T10:20:48;19.30;;;9.85;;
65206;SDS011;58477;48.072;11.970;2022-12-16T10:23:38;33.38;;;15.63;;
65206;SDS011;58477;48.072;11.970;2022-12-16T10:26:50;36.78;;;17.80;;
65206;SDS011;58477;48.072;11.970;2022-12-16T10:29:39;42.63;;;20.83;;
65206;SDS011;58477;48.072;11.970;2022-12-16T10:38:42;44.03;;;21.45;;
65206;SDS011;58477;48.072;11.970;2022-12-16T10:41:28;44.97;;;21.73;;
65206;SDS011;58477;48.072;11.970;2022-12-16T10:44:19;42.22;;;21.23;;
65206;SDS011;58477;48.072;11.970;2022-12-16T10:47:11;51.70;;;23.92;;
65206;SDS011;58477;48.072;11.970;2022-12-16T10:49:56;46.42;;;21.42;;
65206;SDS011;58477;48.072;11.970;2022-12-16T10:58:51;36.55;;;18.65;;
65206;SDS011;58477;48.072;11.970;2022-12-16T11:01:37;31.50;;;16.02;;
65206;SDS011;58477;48.072;11.970;2022-12-16T11:07:23;45.47;;;22.33;;
65206;SDS011;58477;48.072;11.970;2022-12-16T11:10:24;42.30;;;20.27;;
65206;SDS011;58477;48.072;11.970;2022-12-16T11:13:23;37.58;;;17.42;;
65206;SDS011;58477;48.072;11.970;2022-12-16T11:18:56;56.00;;;21.92;;
65206;SDS011;58477;48.072;11.970;2022-12-16T11:21:41;44.78;;;21.50;;
65206;SDS011;58477;48.072;11.970;2022-12-16T11:24:25;35.15;;;17.70;;
65206;SDS011;58477;48.072;11.970;2022-12-16T11:30:01;37.78;;;18.15;;
65206;SDS011;58477;48.072;11.970;2022-12-16T11:33:11;45.90;;;20.48;;
65206;SDS011;58477;48.072;11.970;2022-12-16T11:36:16;42.83;;;20.27;;
65206;SDS011;58477;48.072;11.970;2022-12-16T11:39:04;46.78;;;20.40;;
65206;SDS011;58477;48.072;11.970;2022-12-16T11:41:51;40.08;;;18.92;;
65206;SDS011;58477;48.072;11.970;2022-12-16T11:44:45;40.40;;;18.63;;
65206;SDS011;58477;48.072;11.970;2022-12-16T11:47:43;42.95;;;19.98;;
65206;SDS011;58477;48.072;11.970;2022-12-16T11:50:31;40.10;;;20.55;;
65206;SDS011;58477;48.072;11.970;2022-12-16T11:53:24;42.00;;;20.17;;
65206;SDS011;58477;48.072;11.970;2022-12-16T11:56:36;25.40;;;12.15;;
65206;SDS011;58477;48.072;11.970;2022-12-16T11:59:29;46.97;;;22.92;;
65206;SDS011;58477;48.072;11.970;2022-12-16T12:02:33;45.08;;;21.88;;
65206;SDS011;58477;48.072;11.970;2022-12-16T12:08:35;32.65;;;17.55;;
65206;SDS011;58477;48.072;11.970;2022-12-16T12:11:30;47.60;;;21.83;;
65206;SDS011;58477;48.072;11.970;2022-12-16T12:23:23;33.97;;;14.65;;
65206;SDS011;58477;48.072;11.970;2022-12-16T12:26:14;21.92;;;11.60;;
65206;SDS011;58477;48.072;11.970;2022-12-16T12:29:15;24.70;;;12.75;;
65206;SDS011;58477;48.072;11.970;2022-12-16T12:32:18;24.92;;;13.98;;
65206;SDS011;58477;48.072;11.970;2022-12-16T12:38:08;43.55;;;20.77;;
65206;SDS011;58477;48.072;11.970;2022-12-16T12:41:01;41.15;;;20.48;;
65206;SDS011;58477;48.072;11.970;2022-12-16T12:47:01;36.85;;;18.88;;
65206;SDS011;58477;48.072;11.970;2022-12-16T12:49:56;47.70;;;22.10;;
65206;SDS011;58477;48.072;11.970;2022-12-16T12:56:18;40.13;;;19.38;;
65206;SDS011;58477;48.072;11.970;2022-12-16T12:59:29;16.10;;;9.95;;
65206;SDS011;58477;48.072;11.970;2022-12-16T13:02:24;19.45;;;10.15;;
65206;SDS011;58477;48.072;11.970;2022-12-16T13:05:12;22.65;;;11.30;;
65206;SDS011;58477;48.072;11.970;2022-12-16T13:08:44;45.35;;;22.13;;
65206;SDS011;58477;48.072;11.970;2022-12-16T13:11:22;42.97;;;22.50;;
65206;SDS011;58477;48.072;11.970;2022-12-16T13:17:19;28.27;;;16.45;;
65206;SDS011;58477;48.072;11.970;2022-12-16T13:26:10;38.03;;;18.45;;
65206;SDS011;58477;48.072;11.970;2022-12-16T13:32:16;31.13;;;14.32;;
65206;SDS011;58477;48.072;11.970;2022-12-16T13:35:13;42.83;;;20.70;;
65206;SDS011;58477;48.072;11.970;2022-12-16T13:38:03;41.75;;;20.75;;
65206;SDS011;58477;48.072;11.970;2022-12-16T13:40:53;44.60;;;21.13;;
65206;SDS011;58477;48.072;11.970;2022-12-16T13:43:48;47.97;;;21.13;;
65206;SDS011;58477;48.072;11.970;2022-12-16T13:46:44;46.78;;;21.73;;
65206;SDS011;58477;48.072;11.970;2022-12-16T13:52:29;40.38;;;19.13;;
65206;SDS011;58477;48.072;11.970;2022-12-16T13:55:29;39.38;;;19.08;;
65206;SDS011;58477;48.072;11.970;2022-12-16T14:01:13;42.03;;;20.67;;
65206;SDS011;58477;48.072;11.970;2022-12-16T14:04:01;44.95;;;21.30;;
65206;SDS011;58477;48.072;11.970;2022-12-16T14:06:45;42.50;;;21.33;;
65206;SDS011;58477;48.072;11.970;2022-12-16T14:09:35;51.15;;;22.48;;
65206;SDS011;58477;48.072;11.970;2022-12-16T14:15:40;47.50;;;22.23;;
65206;SDS011;58477;48.072;11.970;2022-12-16T14:18:37;40.65;;;21.38;;
65206;SDS011;58477;48.072;11.970;2022-12-16T14:21:48;52.53;;;22.77;;
65206;SDS011;58477;48.072;11.970;2022-12-16T14:24:35;44.38;;;21.63;;
65206;SDS011;58477;48.072;11.970;2022-12-16T14:27:21;44.33;;;20.83;;
65206;SDS011;58477;48.072;11.970;2022-12-16T14:30:14;31.33;;;17.08;;
65206;SDS011;58477;48.072;11.970;2022-12-16T14:36:25;42.40;;;20.58;;
65206;SDS011;58477;48.072;11.970;2022-12-16T14:39:20;31.50;;;17.83;;
65206;SDS011;58477;48.072;11.970;2022-12-16T14:45:16;42.20;;;20.92;;
65206;SDS011;58477;48.072;11.970;2022-12-16T14:54:21;46.83;;;21.70;;
65206;SDS011;58477;48.072;11.970;2022-12-16T14:57:16;44.88;;;19.05;;
65206;SDS011;58477;48.072;11.970;2022-12-16T15:00:12;32.63;;;16.33;;
65206;SDS011;58477;48.072;11.970;2022-12-16T15:06:23;29.58;;;14.68;;
65206;SDS011;58477;48.072;11.970;2022-12-16T15:12:06;41.88;;;18.67;;
65206;SDS011;58477;48.072;11.970;2022-12-16T15:14:52;34.75;;;16.60;;
65206;SDS011;58477;48.072;11.970;2022-12-16T15:17:43;38.53;;;18.33;;
65206;SDS011;58477;48.072;11.970;2022-12-16T15:20:39;37.88;;;18.98;;
65206;SDS011;58477;48.072;11.970;2022-12-16T15:23:45;25.77;;;13.90;;
65206;SDS011;58477;48.072;11.970;2022-12-16T15:26:30;39.08;;;19.35;;
65206;SDS011;58477;48.072;11.970;2022-12-16T15:32:31;36.65;;;18.42;;
65206;SDS011;58477;48.072;11.970;2022-12-16T15:35:36;22.27;;;12.38;;
65206;SDS011;58477;48.072;11.970;2022-12-16T15:38:27;27.50;;;14.45;;
65206;SDS011;58477;48.072;11.970;2022-12-16T15:44:23;35.55;;;17.17;;
65206;SDS011;58477;48.072;11.970;2022-12-16T15:47:19;29.88;;;17.23;;
65206;SDS011;58477;48.072;11.970;2022-12-16T15:50:10;32.88;;;16.70;;
65206;SDS011;58477;48.072;11.970;2022-12-16T15:53:13;25.60;;;11.52;;
65206;SDS011;58477;48.072;11.970;2022-12-16T15:56:21;31.33;;;16.15;;
65206;SDS011;58477;48.072;11.970;2022-12-16T15:59:12;23.35;;;11.90;;
65206;SDS011;58477;48.072;11.970;2022-12-16T16:02:09;26.17;;;10.48;;
65206;SDS011;58477;48.072;11.970;2022-12-16T16:05:21;33.90;;;17.73;;
65206;SDS011;58477;48.072;11.970;2022-12-16T16:08:08;25.38;;;12.57;;
65206;SDS011;58477;48.072;11.970;2022-12-16T16:10:53;15.25;;;10.07;;
65206;SDS011;58477;48.072;11.970;2022-12-16T16:13:37;35.33;;;16.63;;
65206;SDS011;58477;48.072;11.970;2022-12-16T16:16:21;43.88;;;17.83;;
65206;SDS011;58477;48.072;11.970;2022-12-16T16:19:10;24.00;;;11.45;;
65206;SDS011;58477;48.072;11.970;2022-12-16T16:21:56;22.80;;;11.45;;
65206;SDS011;58477;48.072;11.970;2022-12-16T16:24:40;23.98;;;12.50;;
65206;SDS011;58477;48.072;11.970;2022-12-16T16:27:30;23.42;;;14.70;;
65206;SDS011;58477;48.072;11.970;2022-12-16T16:30:15;33.15;;;16.80;;
65206;SDS011;58477;48.072;11.970;2022-12-16T16:32:59;33.30;;;17.45;;
65206;SDS011;58477;48.072;11.970;2022-12-16T16:36:11;20.15;;;8.88;;
65206;SDS011;58477;48.072;11.970;2022-12-16T16:38:57;36.80;;;18.58;;
65206;SDS011;58477;48.072;11.970;2022-12-16T16:41:41;40.15;;;19.42;;
65206;SDS011;58477;48.072;11.970;2022-12-16T16:44:25;39.83;;;18.85;;
65206;SDS011;58477;48.072;11.970;2022-12-16T16:47:20;37.80;;;20.02;;
65206;SDS011;58477;48.072;11.970;2022-12-16T16:50:04;27.27;;;11.75;;
65206;SDS011;58477;48.072;11.970;2022-12-16T16:52:49;38.00;;;19.20;;
65206;SDS011;58477;48.072;11.970;2022-12-16T16:55:33;15.10;;;7.97;;
65206;SDS011;58477;48.072;11.970;2022-12-16T16:58:27;37.10;;;17.77;;
65206;SDS011;58477;48.072;11.970;2022-12-16T17:01:14;24.88;;;11.10;;
65206;SDS011;58477;48.072;11.970;2022-12-16T17:04:00;33.28;;;18.20;;
65206;SDS011;58477;48.072;11.970;2022-12-16T17:06:44;42.90;;;21.45;;
65206;SDS011;58477;48.072;11.970;2022-12-16T17:09:28;35.22;;;15.77;;
65206;SDS011;58477;48.072;11.970;2022-12-16T17:12:17;28.90;;;15.13;;
65206;SDS011;58477;48.072;11.970;2022-12-16T17:18:06;42.92;;;22.20;;
65206;SDS011;58477;48.072;11.970;2022-12-16T17:20:50;40.78;;;18.63;;
65206;SDS011;58477;48.072;11.970;2022-12-16T17:23:34;35.45;;;17.90;;
65206;SDS011;58477;48.072;11.970;2022-12-16T17:26:18;33.20;;;17.77;;
65206;SDS011;58477;48.072;11.970;2022-12-16T17:29:02;35.70;;;16.88;;
65206;SDS011;58477;48.072;11.970;2022-12-16T17:31:47;31.80;;;17.60;;
65206;SDS011;58477;48.072;11.970;2022-12-16T17:34:31;33.45;;;17.17;;
65206;SDS011;58477;48.072;11.970;2022-12-16T17:37:15;32.72;;;16.80;;
65206;SDS011;58477;48.072;11.970;2022-12-16T17:40:16;22.80;;;11.15;;
65206;SDS011;58477;48.072;11.970;2022-12-16T17:43:01;37.22;;;19.30;;
65206;SDS011;58477;48.072;11.970;2022-12-16T17:46:04;44.53;;;21.02;;
65206;SDS011;58477;48.072;11.970;2022-12-16T17:48:50;39.58;;;19.88;;
65206;SDS011;58477;48.072;11.970;2022-12-16T17:51:35;25.80;;;14.48;;
65206;SDS011;58477;48.072;11.970;2022-12-16T17:54:19;31.35;;;16.67;;
65206;SDS011;58477;48.072;11.970;2022-12-16T17:57:03;35.83;;;16.45;;
65206;SDS011;58477;48.072;11.970;2022-12-16T17:59:47;32.72;;;16.67;;
65206;SDS011;58477;48.072;11.970;2022-12-16T18:02:37;41.60;;;19.70;;